Redwood Falls Municipal Airport Redwood Falls US
ICAO: KRWF
IATA: RWF
Category: Medium
Scheduled Services: No

Elevation: 1024 ft
TransAlt. 18000 ft.

Airport Communications:
ASOS:126.575
MINNEAPOLIS CNTR:127.1
PRINCETON RDO:122.4
CTAF/UNICOM:123

KRWF Zoom In..

Runways:

(A) RW 05 length 2081 ft width 200 ft
---- / hdg 50

(B) RW 12 length 4001 ft width 100 ft
---- / hdg 124

(C) RW 23 length 2081 ft width 200 ft
---- / hdg 230

(D) RW 30 length 4001 ft width 100 ft
---- / hdg 304

Location; KRWF
Day. 13 / Time. 12.53 Zulu
* Altimeter: 29.96
* Temperature: 23° c. 73.4°f.
* Wind from: 180° Speed 10 kn.
Dewpoint: 21° c.
Visibility: 7 Statute Miles.
Clouds: Overcast 800 ft.

KRWF 131253Z AUTO 18010KT 7SM OVC008 23/21 A2996 RMK AO2 CIG 005V012 SLP139 T02280211

Going to: --> -->


Wind From 180°
Speed 10 kn.

 
 
jpsmedia worldairports.se 2020   terms of use